sensor_id;sensor_type;location;lat;lon;timestamp;pressure;altitude;pressure_sealevel;temperature;humidity
66176;BME280;52977;44.816;20.538;2023-07-20T00:01:44;99162.59;;;24.52;84.52
66176;BME280;52977;44.816;20.538;2023-07-20T00:04:12;99132.41;;;24.47;83.56
66176;BME280;52977;44.816;20.538;2023-07-20T00:06:39;99166.44;;;24.78;82.23
66176;BME280;52977;44.816;20.538;2023-07-20T00:09:07;99124.25;;;24.56;81.20
66176;BME280;52977;44.816;20.538;2023-07-20T00:11:36;99184.88;;;24.92;80.55
66176;BME280;52977;44.816;20.538;2023-07-20T00:14:04;99194.22;;;24.85;79.89
66176;BME280;52977;44.816;20.538;2023-07-20T00:16:31;99196.41;;;24.74;79.42
66176;BME280;52977;44.816;20.538;2023-07-20T00:18:56;99171.81;;;24.49;79.18
66176;BME280;52977;44.816;20.538;2023-07-20T00:21:22;99142.44;;;24.24;79.80
66176;BME280;52977;44.816;20.538;2023-07-20T00:23:48;99185.13;;;24.41;80.99
66176;BME280;52977;44.816;20.538;2023-07-20T00:26:15;99180.84;;;24.36;81.56
66176;BME280;52977;44.816;20.538;2023-07-20T00:28:41;99130.56;;;24.00;83.24
66176;BME280;52977;44.816;20.538;2023-07-20T00:31:07;99167.09;;;24.46;82.96
66176;BME280;52977;44.816;20.538;2023-07-20T00:33:33;99135.06;;;24.34;83.07
66176;BME280;52977;44.816;20.538;2023-07-20T00:35:59;99173.22;;;24.57;84.27
66176;BME280;52977;44.816;20.538;2023-07-20T00:38:25;99167.59;;;24.40;86.71
66176;BME280;52977;44.816;20.538;2023-07-20T00:40:51;99157.09;;;24.48;87.67
66176;BME280;52977;44.816;20.538;2023-07-20T00:43:17;99149.78;;;24.54;88.30
66176;BME280;52977;44.816;20.538;2023-07-20T00:45:44;99128.91;;;24.43;87.99
66176;BME280;52977;44.816;20.538;2023-07-20T00:48:10;99156.50;;;24.77;88.03
66176;BME280;52977;44.816;20.538;2023-07-20T00:50:39;99109.50;;;24.55;87.51
66176;BME280;52977;44.816;20.538;2023-07-20T00:53:06;99151.03;;;24.90;87.04
66176;BME280;52977;44.816;20.538;2023-07-20T00:55:33;99151.03;;;24.90;86.90
66176;BME280;52977;44.816;20.538;2023-07-20T00:57:59;99141.69;;;24.80;86.85
66176;BME280;52977;44.816;20.538;2023-07-20T01:00:27;99098.56;;;24.28;88.95
66176;BME280;52977;44.816;20.538;2023-07-20T01:02:53;99149.50;;;24.69;88.22
66176;BME280;52977;44.816;20.538;2023-07-20T01:05:21;99140.19;;;24.76;87.02
66176;BME280;52977;44.816;20.538;2023-07-20T01:08:03;99148.91;;;24.78;86.88
66176;BME280;52977;44.816;20.538;2023-07-20T01:13:59;99140.72;;;24.70;86.25
66176;BME280;52977;44.816;20.538;2023-07-20T01:16:27;99098.72;;;24.37;85.87
66176;BME280;52977;44.816;20.538;2023-07-20T01:18:53;99107.09;;;24.37;86.03
66176;BME280;52977;44.816;20.538;2023-07-20T01:21:27;99144.28;;;24.51;86.19
66176;BME280;52977;44.816;20.538;2023-07-20T01:24:02;99156.59;;;24.53;86.42
66176;BME280;52977;44.816;20.538;2023-07-20T01:26:38;99158.94;;;24.55;85.86
66176;BME280;52977;44.816;20.538;2023-07-20T01:29:41;99167.75;;;24.53;85.43
66176;BME280;52977;44.816;20.538;2023-07-20T01:32:09;99166.59;;;24.51;85.58
66176;BME280;52977;44.816;20.538;2023-07-20T01:34:36;99141.44;;;24.34;86.50
66176;BME280;52977;44.816;20.538;2023-07-20T01:37:05;99128.34;;;24.31;87.36
66176;BME280;52977;44.816;20.538;2023-07-20T01:39:32;99073.50;;;23.84;87.59
66176;BME280;52977;44.816;20.538;2023-07-20T01:41:59;99155.31;;;24.38;88.83
66176;BME280;52977;44.816;20.538;2023-07-20T01:44:27;99125.44;;;24.18;88.45
66176;BME280;52977;44.816;20.538;2023-07-20T01:46:54;99152.00;;;24.43;88.22
66176;BME280;52977;44.816;20.538;2023-07-20T01:49:21;99122.41;;;24.09;87.27
66176;BME280;52977;44.816;20.538;2023-07-20T01:51:47;99139.28;;;24.22;85.54
66176;BME280;52977;44.816;20.538;2023-07-20T01:54:13;99140.56;;;23.97;87.97
66176;BME280;52977;44.816;20.538;2023-07-20T01:56:40;99121.91;;;23.70;88.69
66176;BME280;52977;44.816;20.538;2023-07-20T01:59:06;99159.75;;;23.68;92.29
66176;BME280;52977;44.816;20.538;2023-07-20T02:01:32;99157.66;;;23.52;95.57
66176;BME280;52977;44.816;20.538;2023-07-20T02:03:59;99158.38;;;23.56;97.07
66176;BME280;52977;44.816;20.538;2023-07-20T02:06:25;99149.28;;;23.76;96.45
66176;BME280;52977;44.816;20.538;2023-07-20T02:08:51;99113.97;;;23.69;96.12
66176;BME280;52977;44.816;20.538;2023-07-20T02:11:17;99142.50;;;23.77;97.50
66176;BME280;52977;44.816;20.538;2023-07-20T02:13:43;99104.88;;;23.45;98.08
66176;BME280;52977;44.816;20.538;2023-07-20T02:16:09;99146.47;;;23.55;98.63
66176;BME280;52977;44.816;20.538;2023-07-20T02:18:37;99156.75;;;23.59;98.54
66176;BME280;52977;44.816;20.538;2023-07-20T02:21:03;99132.47;;;23.35;98.28
66176;BME280;52977;44.816;20.538;2023-07-20T02:23:29;99130.59;;;23.29;98.04
66176;BME280;52977;44.816;20.538;2023-07-20T02:25:55;99160.84;;;23.27;99.37
66176;BME280;52977;44.816;20.538;2023-07-20T02:28:21;99119.31;;;22.85;99.79
66176;BME280;52977;44.816;20.538;2023-07-20T02:30:48;99132.03;;;22.86;100.00
66176;BME280;52977;44.816;20.538;2023-07-20T02:33:14;99151.94;;;23.12;100.00
66176;BME280;52977;44.816;20.538;2023-07-20T02:35:40;99154.34;;;23.10;100.00
66176;BME280;52977;44.816;20.538;2023-07-20T02:38:07;99156.66;;;23.15;100.00
66176;BME280;52977;44.816;20.538;2023-07-20T02:40:33;99156.28;;;23.13;100.00
66176;BME280;52977;44.816;20.538;2023-07-20T02:42:59;99153.81;;;23.18;100.00
66176;BME280;52977;44.816;20.538;2023-07-20T02:45:25;99120.47;;;22.87;100.00
66176;BME280;52977;44.816;20.538;2023-07-20T02:47:51;99129.66;;;23.12;100.00
66176;BME280;52977;44.816;20.538;2023-07-20T02:50:17;99160.44;;;23.28;100.00
66176;BME280;52977;44.816;20.538;2023-07-20T02:52:43;99159.22;;;23.29;100.00
66176;BME280;52977;44.816;20.538;2023-07-20T02:55:10;99155.22;;;23.30;100.00
66176;BME280;52977;44.816;20.538;2023-07-20T02:57:36;99156.19;;;23.44;99.48
66176;BME280;52977;44.816;20.538;2023-07-20T03:00:03;99165.88;;;23.35;99.83
66176;BME280;52977;44.816;20.538;2023-07-20T03:02:31;99163.81;;;23.40;98.46
66176;BME280;52977;44.816;20.538;2023-07-20T03:04:58;99166.56;;;23.43;97.95
66176;BME280;52977;44.816;20.538;2023-07-20T03:07:27;99175.09;;;23.56;97.69
66176;BME280;52977;44.816;20.538;2023-07-20T03:09:54;99165.84;;;23.63;97.12
66176;BME280;52977;44.816;20.538;2023-07-20T03:12:20;99133.78;;;23.51;95.96
66176;BME280;52977;44.816;20.538;2023-07-20T03:14:48;99132.84;;;23.37;97.16
66176;BME280;52977;44.816;20.538;2023-07-20T03:17:14;99161.19;;;23.56;97.01
66176;BME280;52977;44.816;20.538;2023-07-20T03:19:40;99127.16;;;23.21;96.41
66176;BME280;52977;44.816;20.538;2023-07-20T03:22:07;99151.41;;;23.44;96.33
66176;BME280;52977;44.816;20.538;2023-07-20T03:24:34;99202.28;;;23.72;95.67
66176;BME280;52977;44.816;20.538;2023-07-20T03:27:00;99230.34;;;23.85;93.75
66176;BME280;52977;44.816;20.538;2023-07-20T03:29:26;99241.66;;;23.74;93.90
66176;BME280;52977;44.816;20.538;2023-07-20T03:31:52;99176.59;;;23.10;93.23
66176;BME280;52977;44.816;20.538;2023-07-20T03:34:18;99298.75;;;23.62;93.55
66176;BME280;52977;44.816;20.538;2023-07-20T03:36:44;99302.50;;;23.52;94.69
66176;BME280;52977;44.816;20.538;2023-07-20T03:39:12;99300.34;;;23.36;94.84
66176;BME280;52977;44.816;20.538;2023-07-20T03:41:38;99343.63;;;23.68;95.68
66176;BME280;52977;44.816;20.538;2023-07-20T03:44:04;99323.00;;;23.65;97.21
66176;BME280;52977;44.816;20.538;2023-07-20T03:46:30;99245.03;;;23.07;99.81
66176;BME280;52977;44.816;20.538;2023-07-20T03:48:57;99328.44;;;23.45;100.00
66176;BME280;52977;44.816;20.538;2023-07-20T03:51:22;99354.25;;;23.49;100.00
66176;BME280;52977;44.816;20.538;2023-07-20T03:53:48;99343.53;;;23.48;100.00
66176;BME280;52977;44.816;20.538;2023-07-20T03:56:14;99340.75;;;23.48;100.00
66176;BME280;52977;44.816;20.538;2023-07-20T03:58:40;99317.06;;;23.36;99.23
66176;BME280;52977;44.816;20.538;2023-07-20T04:01:06;99360.94;;;23.55;97.96
66176;BME280;52977;44.816;20.538;2023-07-20T04:03:33;99360.28;;;23.44;97.96
66176;BME280;52977;44.816;20.538;2023-07-20T04:05:59;99390.09;;;23.47;98.64
66176;BME280;52977;44.816;20.538;2023-07-20T04:08:25;99400.41;;;23.50;97.26
66176;BME280;52977;44.816;20.538;2023-07-20T04:10:52;99388.97;;;23.41;95.78
66176;BME280;52977;44.816;20.538;2023-07-20T04:13:18;99383.28;;;23.17;96.20
66176;BME280;52977;44.816;20.538;2023-07-20T04:15:45;99388.09;;;23.17;95.40
66176;BME280;52977;44.816;20.538;2023-07-20T04:18:11;99307.19;;;22.59;95.53
66176;BME280;52977;44.816;20.538;2023-07-20T04:20:38;99396.78;;;23.19;94.99
66176;BME280;52977;44.816;20.538;2023-07-20T04:23:04;99380.94;;;23.16;94.09
66176;BME280;52977;44.816;20.538;2023-07-20T04:25:31;99377.69;;;23.21;92.68
66176;BME280;52977;44.816;20.538;2023-07-20T04:28:06;99372.88;;;23.25;92.25
66176;BME280;52977;44.816;20.538;2023-07-20T04:30:37;99383.69;;;23.19;92.09
66176;BME280;52977;44.816;20.538;2023-07-20T04:33:04;99376.88;;;23.20;91.73
66176;BME280;52977;44.816;20.538;2023-07-20T04:38:14;99387.13;;;23.31;91.46
66176;BME280;52977;44.816;20.538;2023-07-20T04:40:45;99393.13;;;23.29;90.91
66176;BME280;52977;44.816;20.538;2023-07-20T04:43:13;99364.31;;;23.05;91.58
66176;BME280;52977;44.816;20.538;2023-07-20T04:45:39;99388.75;;;23.28;90.85
66176;BME280;52977;44.816;20.538;2023-07-20T04:48:12;99358.84;;;22.98;92.18
66176;BME280;52977;44.816;20.538;2023-07-20T04:50:44;99386.06;;;23.21;91.00
66176;BME280;52977;44.816;20.538;2023-07-20T04:53:12;99330.59;;;22.99;91.01
66176;BME280;52977;44.816;20.538;2023-07-20T04:55:39;99315.25;;;22.87;91.36
66176;BME280;52977;44.816;20.538;2023-07-20T04:58:07;99345.03;;;23.25;90.96
66176;BME280;52977;44.816;20.538;2023-07-20T05:00:38;99340.63;;;23.28;90.95
66176;BME280;52977;44.816;20.538;2023-07-20T05:03:05;99333.91;;;23.25;91.17
66176;BME280;52977;44.816;20.538;2023-07-20T05:05:31;99339.91;;;23.20;91.74
66176;BME280;52977;44.816;20.538;2023-07-20T05:07:58;99316.63;;;23.07;91.56
66176;BME280;52977;44.816;20.538;2023-07-20T05:10:24;99337.09;;;23.24;91.14
66176;BME280;52977;44.816;20.538;2023-07-20T05:12:50;99342.34;;;23.18;91.44
66176;BME280;52977;44.816;20.538;2023-07-20T05:15:16;99376.75;;;23.31;90.92
66176;BME280;52977;44.816;20.538;2023-07-20T05:17:43;99389.09;;;23.30;91.33
66176;BME280;52977;44.816;20.538;2023-07-20T05:20:10;99374.94;;;23.17;90.94
66176;BME280;52977;44.816;20.538;2023-07-20T05:22:37;99391.66;;;23.17;91.64
66176;BME280;52977;44.816;20.538;2023-07-20T05:25:10;99362.47;;;22.91;92.55
66176;BME280;52977;44.816;20.538;2023-07-20T05:27:37;99392.47;;;23.11;94.08
66176;BME280;52977;44.816;20.538;2023-07-20T05:30:04;99397.03;;;22.94;95.90
66176;BME280;52977;44.816;20.538;2023-07-20T05:32:31;99388.97;;;22.68;98.53
66176;BME280;52977;44.816;20.538;2023-07-20T05:34:57;99393.00;;;22.60;100.00
66176;BME280;52977;44.816;20.538;2023-07-20T05:37:24;99370.56;;;22.40;100.00
66176;BME280;52977;44.816;20.538;2023-07-20T05:39:50;99387.41;;;22.64;100.00
66176;BME280;52977;44.816;20.538;2023-07-20T05:42:16;99360.25;;;22.37;100.00
66176;BME280;52977;44.816;20.538;2023-07-20T05:44:43;99378.34;;;22.56;100.00
66176;BME280;52977;44.816;20.538;2023-07-20T05:47:09;99377.53;;;22.59;100.00
66176;BME280;52977;44.816;20.538;2023-07-20T05:49:35;99341.06;;;22.50;100.00
66176;BME280;52977;44.816;20.538;2023-07-20T05:52:01;99367.03;;;22.78;100.00
66176;BME280;52977;44.816;20.538;2023-07-20T05:54:28;99363.09;;;22.72;100.00
66176;BME280;52977;44.816;20.538;2023-07-20T05:56:54;99349.13;;;22.79;100.00
66176;BME280;52977;44.816;20.538;2023-07-20T05:59:20;99347.03;;;22.86;100.00
66176;BME280;52977;44.816;20.538;2023-07-20T06:01:47;99342.25;;;22.87;100.00
66176;BME280;52977;44.816;20.538;2023-07-20T06:04:14;99342.94;;;22.98;100.00
66176;BME280;52977;44.816;20.538;2023-07-20T06:06:40;99325.31;;;23.09;97.68
66176;BME280;52977;44.816;20.538;2023-07-20T06:09:06;99279.59;;;22.75;97.53
66176;BME280;52977;44.816;20.538;2023-07-20T06:11:38;99280.81;;;22.74;98.64
66176;BME280;52977;44.816;20.538;2023-07-20T06:14:04;99266.41;;;22.83;97.54
66176;BME280;52977;44.816;20.538;2023-07-20T06:16:31;99271.63;;;23.12;96.61
66176;BME280;52977;44.816;20.538;2023-07-20T06:18:57;99304.66;;;23.41;96.02
66176;BME280;52977;44.816;20.538;2023-07-20T06:21:24;99311.38;;;23.43;94.97
66176;BME280;52977;44.816;20.538;2023-07-20T06:23:50;99312.31;;;23.60;93.88
66176;BME280;52977;44.816;20.538;2023-07-20T06:26:16;99316.41;;;23.52;94.26
66176;BME280;52977;44.816;20.538;2023-07-20T06:28:42;99290.25;;;23.46;93.91
66176;BME280;52977;44.816;20.538;2023-07-20T06:31:08;99305.91;;;23.63;93.00
66176;BME280;52977;44.816;20.538;2023-07-20T06:33:34;99300.22;;;23.70;92.51
66176;BME280;52977;44.816;20.538;2023-07-20T06:36:00;99274.09;;;23.61;92.14
66176;BME280;52977;44.816;20.538;2023-07-20T06:38:26;99308.38;;;23.85;91.12
66176;BME280;52977;44.816;20.538;2023-07-20T06:40:53;99320.28;;;23.89;90.79
66176;BME280;52977;44.816;20.538;2023-07-20T06:43:19;99311.06;;;23.92;90.98
66176;BME280;52977;44.816;20.538;2023-07-20T06:45:51;99311.84;;;23.93;91.58
66176;BME280;52977;44.816;20.538;2023-07-20T06:48:17;99256.78;;;23.49;92.57
66176;BME280;52977;44.816;20.538;2023-07-20T06:50:44;99299.59;;;23.86;92.61
66176;BME280;52977;44.816;20.538;2023-07-20T06:53:10;99300.69;;;23.93;92.01
66176;BME280;52977;44.816;20.538;2023-07-20T06:55:36;99248.31;;;23.57;91.97
66176;BME280;52977;44.816;20.538;2023-07-20T06:58:02;99306.09;;;24.03;91.83
66176;BME280;52977;44.816;20.538;2023-07-20T07:00:29;99301.75;;;24.02;90.27
66176;BME280;52977;44.816;20.538;2023-07-20T07:02:55;99300.97;;;24.02;89.54
66176;BME280;52977;44.816;20.538;2023-07-20T07:05:21;99294.28;;;23.96;89.08
66176;BME280;52977;44.816;20.538;2023-07-20T07:07:47;99299.50;;;23.94;88.76
66176;BME280;52977;44.816;20.538;2023-07-20T07:10:14;99277.41;;;23.79;88.50
66176;BME280;52977;44.816;20.538;2023-07-20T07:12:40;99317.00;;;23.94;88.82
66176;BME280;52977;44.816;20.538;2023-07-20T07:15:07;99301.91;;;23.92;89.25
66176;BME280;52977;44.816;20.538;2023-07-20T07:17:33;99308.81;;;23.83;89.18
66176;BME280;52977;44.816;20.538;2023-07-20T07:20:01;99305.94;;;23.87;89.27
66176;BME280;52977;44.816;20.538;2023-07-20T07:22:27;99318.16;;;23.97;89.11
66176;BME280;52977;44.816;20.538;2023-07-20T07:24:53;99310.75;;;23.86;89.56
66176;BME280;52977;44.816;20.538;2023-07-20T07:27:19;99317.00;;;23.94;89.72
66176;BME280;52977;44.816;20.538;2023-07-20T07:29:46;99318.16;;;23.97;89.75
66176;BME280;52977;44.816;20.538;2023-07-20T07:32:12;99290.97;;;23.77;90.59
66176;BME280;52977;44.816;20.538;2023-07-20T07:34:39;99315.78;;;23.95;91.15
66176;BME280;52977;44.816;20.538;2023-07-20T07:37:05;99310.69;;;23.90;89.55
66176;BME280;52977;44.816;20.538;2023-07-20T07:39:31;99268.97;;;23.59;89.85
66176;BME280;52977;44.816;20.538;2023-07-20T07:41:57;99327.00;;;23.92;91.28
66176;BME280;52977;44.816;20.538;2023-07-20T07:44:23;99324.59;;;23.94;91.35
66176;BME280;52977;44.816;20.538;2023-07-20T07:46:50;99330.91;;;23.98;91.92
66176;BME280;52977;44.816;20.538;2023-07-20T07:49:16;99326.53;;;23.97;92.66
66176;BME280;52977;44.816;20.538;2023-07-20T07:51:44;99334.84;;;24.00;93.18
66176;BME280;52977;44.816;20.538;2023-07-20T07:54:10;99332.06;;;24.00;93.85
66176;BME280;52977;44.816;20.538;2023-07-20T07:56:36;99332.88;;;23.97;93.94
66176;BME280;52977;44.816;20.538;2023-07-20T07:59:03;99298.91;;;23.79;93.76
66176;BME280;52977;44.816;20.538;2023-07-20T08:01:29;99321.41;;;23.92;93.98
66176;BME280;52977;44.816;20.538;2023-07-20T08:03:56;99306.91;;;23.77;93.63
66176;BME280;52977;44.816;20.538;2023-07-20T08:06:22;99326.66;;;23.86;93.80
66176;BME280;52977;44.816;20.538;2023-07-20T08:08:50;99344.09;;;23.94;93.84
66176;BME280;52977;44.816;20.538;2023-07-20T08:11:16;99346.47;;;23.95;94.21
66176;BME280;52977;44.816;20.538;2023-07-20T08:13:43;99335.63;;;24.01;93.50
66176;BME280;52977;44.816;20.538;2023-07-20T08:16:10;99341.56;;;24.03;93.91
66176;BME280;52977;44.816;20.538;2023-07-20T08:18:36;99317.06;;;23.91;94.33
66176;BME280;52977;44.816;20.538;2023-07-20T08:21:02;99295.69;;;23.80;95.21
66176;BME280;52977;44.816;20.538;2023-07-20T08:23:29;99334.47;;;23.98;96.05
66176;BME280;52977;44.816;20.538;2023-07-20T08:25:55;99340.09;;;23.95;94.97
66176;BME280;52977;44.816;20.538;2023-07-20T08:28:21;99333.59;;;24.01;93.64
66176;BME280;52977;44.816;20.538;2023-07-20T08:30:48;99313.06;;;23.92;92.22
66176;BME280;52977;44.816;20.538;2023-07-20T08:33:16;99330.81;;;24.01;91.71
66176;BME280;52977;44.816;20.538;2023-07-20T08:35:44;99342.78;;;24.02;92.32
66176;BME280;52977;44.816;20.538;2023-07-20T08:38:10;99332.81;;;24.01;92.48
66176;BME280;52977;44.816;20.538;2023-07-20T08:40:42;99324.94;;;23.96;92.75
66176;BME280;52977;44.816;20.538;2023-07-20T08:43:10;99287.41;;;23.77;92.07
66176;BME280;52977;44.816;20.538;2023-07-20T08:45:39;99338.88;;;24.19;92.30
66176;BME280;52977;44.816;20.538;2023-07-20T08:48:07;99325.81;;;24.16;91.81
66176;BME280;52977;44.816;20.538;2023-07-20T08:50:34;99291.50;;;23.96;92.00
66176;BME280;52977;44.816;20.538;2023-07-20T08:53:01;99338.38;;;24.28;91.50
66176;BME280;52977;44.816;20.538;2023-07-20T08:55:28;99336.66;;;24.34;91.74
66176;BME280;52977;44.816;20.538;2023-07-20T08:57:56;99339.38;;;24.38;88.02
66176;BME280;52977;44.816;20.538;2023-07-20T09:00:24;99331.97;;;24.28;88.21
66176;BME280;52977;44.816;20.538;2023-07-20T09:02:52;99340.47;;;24.44;88.62
66176;BME280;52977;44.816;20.538;2023-07-20T09:05:22;99345.56;;;24.49;88.25
66176;BME280;52977;44.816;20.538;2023-07-20T09:07:51;99349.00;;;24.57;86.20
66176;BME280;52977;44.816;20.538;2023-07-20T09:10:17;99338.16;;;24.63;85.36
66176;BME280;52977;44.816;20.538;2023-07-20T09:12:44;99331.03;;;24.62;85.00
66176;BME280;52977;44.816;20.538;2023-07-20T09:15:11;99328.63;;;24.60;84.99
66176;BME280;52977;44.816;20.538;2023-07-20T09:17:38;99248.22;;;24.11;84.10
66176;BME280;52977;44.816;20.538;2023-07-20T09:20:06;99337.38;;;24.62;84.42
66176;BME280;52977;44.816;20.538;2023-07-20T09:22:34;99337.38;;;24.62;83.22
66176;BME280;52977;44.816;20.538;2023-07-20T09:25:00;99294.16;;;24.50;80.67
66176;BME280;52977;44.816;20.538;2023-07-20T09:27:43;99352.50;;;24.85;80.36
66176;BME280;52977;44.816;20.538;2023-07-20T09:30:10;99346.06;;;24.88;79.43
66176;BME280;52977;44.816;20.538;2023-07-20T09:32:40;99338.81;;;24.90;79.32
66176;BME280;52977;44.816;20.538;2023-07-20T09:35:15;99287.28;;;24.55;80.03
66176;BME280;52977;44.816;20.538;2023-07-20T09:37:49;99332.75;;;24.96;79.90
66176;BME280;52977;44.816;20.538;2023-07-20T09:40:18;99334.81;;;25.12;79.05
66176;BME280;52977;44.816;20.538;2023-07-20T09:42:45;99329.16;;;25.15;79.49
66176;BME280;52977;44.816;20.538;2023-07-20T09:45:12;99329.50;;;25.17;77.93
66176;BME280;52977;44.816;20.538;2023-07-20T09:47:38;99323.84;;;25.21;76.89
66176;BME280;52977;44.816;20.538;2023-07-20T09:50:06;99325.06;;;25.20;77.59
66176;BME280;52977;44.816;20.538;2023-07-20T09:52:41;99323.34;;;25.26;78.36
66176;BME280;52977;44.816;20.538;2023-07-20T09:55:10;99292.22;;;25.07;78.98
66176;BME280;52977;44.816;20.538;2023-07-20T09:57:39;99323.22;;;25.33;78.31
66176;BME280;52977;44.816;20.538;2023-07-20T10:00:07;99324.56;;;25.45;76.72
66176;BME280;52977;44.816;20.538;2023-07-20T10:02:44;99318.91;;;25.49;76.14
66176;BME280;52977;44.816;20.538;2023-07-20T10:05:13;99307.94;;;25.38;75.34
66176;BME280;52977;44.816;20.538;2023-07-20T10:07:50;99330.94;;;25.46;75.27
66176;BME280;52977;44.816;20.538;2023-07-20T10:10:18;99306.22;;;25.24;77.14
66176;BME280;52977;44.816;20.538;2023-07-20T10:12:47;99287.44;;;25.08;77.51
66176;BME280;52977;44.816;20.538;2023-07-20T10:15:24;99325.09;;;25.40;75.32
66176;BME280;52977;44.816;20.538;2023-07-20T10:18:02;99336.09;;;25.47;74.20
66176;BME280;52977;44.816;20.538;2023-07-20T10:20:30;99316.88;;;25.33;74.83
66176;BME280;52977;44.816;20.538;2023-07-20T10:22:57;99339.94;;;25.53;75.86
66176;BME280;52977;44.816;20.538;2023-07-20T10:25:24;99343.09;;;25.55;74.67
66176;BME280;52977;44.816;20.538;2023-07-20T10:27:50;99346.50;;;25.63;76.43
66176;BME280;52977;44.816;20.538;2023-07-20T10:30:17;99326.59;;;25.61;75.37
66176;BME280;52977;44.816;20.538;2023-07-20T10:32:45;99359.97;;;25.68;75.09
66176;BME280;52977;44.816;20.538;2023-07-20T10:35:13;99346.16;;;25.61;77.77
66176;BME280;52977;44.816;20.538;2023-07-20T10:37:53;99347.66;;;25.66;78.46
66176;BME280;52977;44.816;20.538;2023-07-20T10:40:31;99346.78;;;25.69;80.03
66176;BME280;52977;44.816;20.538;2023-07-20T10:42:59;99353.59;;;25.84;77.87
66176;BME280;52977;44.816;20.538;2023-07-20T10:45:53;99358.16;;;25.78;78.23
66176;BME280;52977;44.816;20.538;2023-07-20T10:48:22;99353.00;;;25.76;79.19
66176;BME280;52977;44.816;20.538;2023-07-20T10:53:36;99367.44;;;25.91;78.62
66176;BME280;52977;44.816;20.538;2023-07-20T10:56:11;99350.50;;;25.99;78.88
66176;BME280;52977;44.816;20.538;2023-07-20T10:58:38;99351.81;;;26.10;77.62
66176;BME280;52977;44.816;20.538;2023-07-20T11:01:04;99277.34;;;25.67;77.21
66176;BME280;52977;44.816;20.538;2023-07-20T11:03:37;99344.81;;;26.19;77.61
66176;BME280;52977;44.816;20.538;2023-07-20T11:09:03;99347.09;;;26.24;76.96
66176;BME280;52977;44.816;20.538;2023-07-20T11:11:32;99280.50;;;25.86;77.94
66176;BME280;52977;44.816;20.538;2023-07-20T11:14:06;99351.47;;;26.25;77.55
66176;BME280;52977;44.816;20.538;2023-07-20T11:16:47;99344.56;;;26.30;77.41
66176;BME280;52977;44.816;20.538;2023-07-20T11:19:24;99348.94;;;26.31;75.65
66176;BME280;52977;44.816;20.538;2023-07-20T11:21:55;99306.22;;;26.14;74.77
66176;BME280;52977;44.816;20.538;2023-07-20T11:24:23;99328.28;;;26.41;75.70
66176;BME280;52977;44.816;20.538;2023-07-20T11:26:54;99333.59;;;26.52;75.21
66176;BME280;52977;44.816;20.538;2023-07-20T11:29:21;99343.13;;;26.54;75.02
66176;BME280;52977;44.816;20.538;2023-07-20T11:31:49;99326.78;;;26.53;75.19
66176;BME280;52977;44.816;20.538;2023-07-20T11:34:17;99328.94;;;26.61;75.28
66176;BME280;52977;44.816;20.538;2023-07-20T11:36:49;99330.41;;;26.66;75.76
66176;BME280;52977;44.816;20.538;2023-07-20T11:39:17;99324.63;;;26.73;76.00
66176;BME280;52977;44.816;20.538;2023-07-20T11:41:53;99316.94;;;26.77;74.39
66176;BME280;52977;44.816;20.538;2023-07-20T11:44:22;99318.09;;;26.93;72.71
66176;BME280;52977;44.816;20.538;2023-07-20T11:49:35;99301.66;;;26.95;71.79
66176;BME280;52977;44.816;20.538;2023-07-20T11:52:08;99301.66;;;26.95;71.96
66176;BME280;52977;44.816;20.538;2023-07-20T11:54:35;99321.28;;;27.08;74.41
66176;BME280;52977;44.816;20.538;2023-07-20T11:57:02;99303.47;;;27.15;73.04
66176;BME280;52977;44.816;20.538;2023-07-20T11:59:28;99271.63;;;27.08;72.85
66176;BME280;52977;44.816;20.538;2023-07-20T12:01:54;99310.13;;;27.34;73.81
66176;BME280;52977;44.816;20.538;2023-07-20T12:04:22;99274.34;;;27.25;70.66
66176;BME280;52977;44.816;20.538;2023-07-20T12:06:49;99288.13;;;27.32;70.28
66176;BME280;52977;44.816;20.538;2023-07-20T12:09:16;99289.63;;;27.50;69.85
66176;BME280;52977;44.816;20.538;2023-07-20T12:11:44;99271.94;;;27.40;69.02
66176;BME280;52977;44.816;20.538;2023-07-20T12:14:11;99244.34;;;27.38;70.04
66176;BME280;52977;44.816;20.538;2023-07-20T12:16:37;99257.00;;;27.56;67.87
66176;BME280;52977;44.816;20.538;2023-07-20T12:19:08;99184.94;;;27.18;66.55
66176;BME280;52977;44.816;20.538;2023-07-20T12:21:37;99282.44;;;28.00;66.78
66176;BME280;52977;44.816;20.538;2023-07-20T12:24:04;99278.16;;;27.95;63.45
66176;BME280;52977;44.816;20.538;2023-07-20T12:26:31;99285.53;;;28.15;63.85
66176;BME280;52977;44.816;20.538;2023-07-20T12:28:57;99276.31;;;28.14;63.12
66176;BME280;52977;44.816;20.538;2023-07-20T12:31:25;99284.53;;;28.22;63.55
66176;BME280;52977;44.816;20.538;2023-07-20T12:33:51;99288.00;;;28.26;63.91
66176;BME280;52977;44.816;20.538;2023-07-20T12:36:18;99291.00;;;28.32;65.56
66176;BME280;52977;44.816;20.538;2023-07-20T12:38:45;99249.72;;;28.19;63.88
66176;BME280;52977;44.816;20.538;2023-07-20T12:41:12;99270.06;;;28.45;64.42
66176;BME280;52977;44.816;20.538;2023-07-20T12:43:40;99276.72;;;28.39;60.29
66176;BME280;52977;44.816;20.538;2023-07-20T12:46:07;99246.63;;;28.04;61.18
66176;BME280;52977;44.816;20.538;2023-07-20T12:48:33;99277.06;;;28.28;62.19
66176;BME280;52977;44.816;20.538;2023-07-20T12:50:59;99274.69;;;28.39;63.33
66176;BME280;52977;44.816;20.538;2023-07-20T12:53:25;99236.56;;;28.29;59.00
66176;BME280;52977;44.816;20.538;2023-07-20T12:55:50;99222.44;;;28.20;59.36
66176;BME280;52977;44.816;20.538;2023-07-20T12:58:16;99260.22;;;28.63;58.80
66176;BME280;52977;44.816;20.538;2023-07-20T13:00:43;99251.69;;;28.67;57.85
66176;BME280;52977;44.816;20.538;2023-07-20T13:03:09;99254.09;;;28.77;58.23
66176;BME280;52977;44.816;20.538;2023-07-20T13:05:35;99259.72;;;28.77;59.83
66176;BME280;52977;44.816;20.538;2023-07-20T13:08:02;99243.00;;;28.74;59.76